Anaheim, California
Current Conditions -  °F | °C
As of 10:53 PM on Friday 24 Oct 2014 (Local Time) from KFUL Reporting Station
Clear Clear  
Wind Chill: 19°   Ceiling: Unl
Heat Index: 19°   Visibility: 10mi
Dew Point: 13°   Wind: 0mph
Humidity: 66%   Direction: NA
Pressure: 29.99"   Gusts: NA
Location:  33.83°N, 117.91°W
Report Text: KFUL 250553Z 00000KT 10SM CLR 19/13 A2999 RMK AO2 SLP155 T01940128 10294 20194 53018 $
Loading
Personal Weather Stations






























Interactive Weather Map New forecast layout! Learn more

10-Day Weather Forecast

Advertisements
Track Severe Weather on mobile